»·PEaware :: N529B KLAX-KSAN

N529B :: KLAX-KSAN

FLIGHT INFORMATION

Flight Status: Arrived
Operator: Privately registered:
United States
More flights under this callsign
Pilot: Kim B. (19519)
Aircraft: Unknown
(B29)
More flights by this aircraft type
Origin: KLAX Los Angeles Intl
United States
Destination: KSAN San Diego Intl-Lindbergh
United States
More flights between these airports :: More routes between these airports
Route:
File this flight plan on PilotEdge
Remarks: CAT-11
Altitude:
(Current/Filed)
5,500ft
Speed:
(Current/Filed)
180kts
Departed: 06-Oct-18 06:33 PM
Arrived: 06-Oct-18 07:20 PM
Distance/Time
Traveled:
95nm/0:47
Distance/Time
To Go:
Arrived

Flight Plot

Page will automatically refresh every two minutes.


Map Options




Map Legend


Flown Route
Filed Route
Departure Airport
Arrival Airport
Navaid (VOR, NDB)
Fix

Horizontal Profiles

Position Reports

Time Latitude Longitude Heading Altitude Ground
Speed
06-Oct-18 18:24 33.933643 -118.399832 174 113ft 0kts
06-Oct-18 18:25 33.933643 -118.399832 174 113ft 0kts
06-Oct-18 18:26 33.933643 -118.399832 174 113ft 0kts
06-Oct-18 18:27 33.933643 -118.399832 174 113ft 0kts
06-Oct-18 18:28 33.933642 -118.399832 174 113ft 0kts
06-Oct-18 18:29 33.934219 -118.398164 19 113ft 14kts
06-Oct-18 18:30 33.935187 -118.391843 83 113ft 26kts
06-Oct-18 18:31 33.936098 -118.383158 68 113ft 9kts
06-Oct-18 18:32 33.936407 -118.382812 18 113ft 0kts
06-Oct-18 18:33 33.936407 -118.382812 18 113ft 0kts
06-Oct-18 18:34 33.937234 -118.382808 321 113ft 9kts
06-Oct-18 18:35 33.934655 -118.408347 264 426ft 118kts
06-Oct-18 18:36 33.931434 -118.455611 265 1237ft 154kts
06-Oct-18 18:37 33.927863 -118.510037 265 2183ft 171kts
06-Oct-18 18:38 33.923955 -118.569924 265 2980ft 194kts
06-Oct-18 18:39 33.919453 -118.640135 265 2955ft 219kts
06-Oct-18 18:40 33.911869 -118.712404 232 2939ft 221kts
06-Oct-18 18:41 33.860730 -118.705364 153 3690ft 189kts
06-Oct-18 18:42 33.816037 -118.679106 153 4533ft 178kts
06-Oct-18 18:43 33.772849 -118.653717 153 5396ft 168kts
06-Oct-18 18:44 33.727964 -118.627347 153 5496ft 195kts
06-Oct-18 18:45 33.679803 -118.592645 138 5492ft 212kts
06-Oct-18 18:46 33.641928 -118.536355 124 5488ft 220kts
06-Oct-18 18:47 33.607213 -118.477429 125 5486ft 219kts
06-Oct-18 18:48 33.571792 -118.419154 125 5486ft 218kts
06-Oct-18 18:49 33.536159 -118.360511 125 5486ft 218kts
06-Oct-18 18:50 33.500924 -118.302505 126 5486ft 218kts
06-Oct-18 18:51 33.460733 -118.248344 132 5486ft 218kts
06-Oct-18 18:52 33.419685 -118.194847 132 5486ft 218kts
06-Oct-18 18:53 33.378718 -118.141444 132 5486ft 218kts
06-Oct-18 18:54 33.338132 -118.088527 132 5486ft 218kts
06-Oct-18 18:55 33.297143 -118.035074 132 5486ft 218kts
06-Oct-18 18:56 33.256254 -117.981741 132 5486ft 218kts
06-Oct-18 18:57 33.215570 -117.928656 132 5484ft 214kts
06-Oct-18 18:58 33.175489 -117.876330 132 5485ft 212kts
06-Oct-18 18:59 33.136107 -117.824897 132 5485ft 209kts
06-Oct-18 19:00 33.096949 -117.773741 132 5485ft 207kts
06-Oct-18 19:01 33.058207 -117.723116 132 5486ft 207kts
06-Oct-18 19:02 33.034624 -117.667299 52 5505ft 202kts
06-Oct-18 19:03 33.086755 -117.649181 334 5483ft 201kts
06-Oct-18 19:04 33.102338 -117.709274 251 5498ft 200kts
06-Oct-18 19:05 33.060651 -117.737822 142 5504ft 198kts
06-Oct-18 19:06 33.045658 -117.675770 96 5487ft 200kts
06-Oct-18 19:07 33.048321 -117.621263 69 5491ft 201kts
06-Oct-18 19:08 33.072281 -117.548405 62 5488ft 203kts
06-Oct-18 19:09 33.093140 -117.499510 62 5486ft 204kts
06-Oct-18 19:10 33.096652 -117.434605 100 5487ft 204kts
06-Oct-18 19:11 33.073799 -117.361056 114 5486ft 204kts
06-Oct-18 19:12 33.047519 -117.315120 138 5489ft 204kts
06-Oct-18 19:13 32.993154 -117.272012 160 5487ft 204kts
06-Oct-18 19:14 32.948249 -117.253236 161 5486ft 205kts
06-Oct-18 19:15 32.892535 -117.243457 164 5487ft 205kts
06-Oct-18 19:16 32.838666 -117.223180 157 5487ft 205kts
06-Oct-18 19:17 32.789921 -117.198851 157 4774ft 187kts
06-Oct-18 19:18 32.743836 -117.173636 135 3255ft 186kts
06-Oct-18 19:19 32.741980 -117.122501 121 2586ft 141kts
06-Oct-18 19:20 32.726154 -117.152416 271 1073ft 149kts
06-Oct-18 19:21 32.733889 -117.190735 290 24ft 79kts
06-Oct-18 19:22 32.734862 -117.198372 185 24ft 10kts
06-Oct-18 19:23 32.733271 -117.192832 106 24ft 36kts
06-Oct-18 19:24 32.732460 -117.188705 44 23ft 1kts
06-Oct-18 19:25 32.734344 -117.185759 349 23ft 9kts
06-Oct-18 19:26 32.734457 -117.185930 241 23ft 0kts
06-Oct-18 19:27 32.734457 -117.185930 241 23ft 0kts
06-Oct-18 19:28 32.734457 -117.185930 241 23ft 0kts
06-Oct-18 19:29 32.734457 -117.185930 241 23ft 0kts
06-Oct-18 19:30 32.734457 -117.185930 241 23ft 0kts
06-Oct-18 19:31 32.734457 -117.185930 241 23ft 0kts
06-Oct-18 19:32 32.734457 -117.185930 241 23ft 0kts
06-Oct-18 19:33 32.734457 -117.185930 241 23ft 0kts
06-Oct-18 19:34 32.734457 -117.185930 241 23ft 0kts
06-Oct-18 19:35 32.734457 -117.185930 241 23ft 0kts
06-Oct-18 19:36 32.734457 -117.185930 241 23ft 0kts

Navigation Log

Ident Type
Flight plan parsing failed, navigation log unavailable